createdAt,value
2022-09-03T00:03:08.569Z,99095.06
2022-09-03T00:06:23.057Z,99097.86
2022-09-03T00:09:38.840Z,99088.20
2022-09-03T00:12:53.375Z,99093.69
2022-09-03T00:16:09.465Z,99087.52
2022-09-03T00:19:26.647Z,99091.47
2022-09-03T00:22:39.950Z,99088.68
2022-09-03T00:25:57.259Z,99096.75
2022-09-03T00:29:13.909Z,99089.84
2022-09-03T00:32:30.399Z,99088.67
2022-09-03T00:35:47.617Z,99090.55
2022-09-03T00:38:59.721Z,99092.05
2022-09-03T00:42:24.512Z,99092.05
2022-09-03T00:45:43.240Z,99090.97
2022-09-03T00:49:14.234Z,99085.64
2022-09-03T00:52:35.845Z,99086.34
2022-09-03T00:55:58.195Z,99078.94
2022-09-03T00:59:21.348Z,99083.15
2022-09-03T01:02:40.134Z,99084.03
2022-09-03T01:06:03.490Z,99075.47
2022-09-03T01:09:30.319Z,99083.30
2022-09-03T01:12:49.461Z,99076.85
2022-09-03T01:16:09.192Z,99086.86
2022-09-03T01:19:35.746Z,99079.83
2022-09-03T01:23:17.081Z,99084.03
2022-09-03T01:26:44.747Z,99086.70
2022-09-03T01:30:02.621Z,99086.31
2022-09-03T01:33:20.323Z,99077.05
2022-09-03T01:36:38.268Z,99089.09
2022-09-03T01:39:59.725Z,99082.38
2022-09-03T01:43:24.550Z,99084.88
2022-09-03T01:46:41.581Z,99084.62
2022-09-03T01:49:59.529Z,99079.30
2022-09-03T01:53:20.613Z,99085.62
2022-09-03T01:56:44.855Z,99083.80
2022-09-03T02:00:02.316Z,99081.84
2022-09-03T02:03:18.799Z,99088.55
2022-09-03T02:06:31.962Z,99087.47
2022-09-03T02:09:43.562Z,99091.06
2022-09-03T02:13:01.086Z,99090.25
2022-09-03T02:16:18.018Z,99084.95
2022-09-03T02:19:28.388Z,99088.19
2022-09-03T02:22:41.006Z,99091.42
2022-09-03T02:25:59.307Z,99090.03
2022-09-03T02:29:11.286Z,99100.42
2022-09-03T02:32:23.004Z,99101.53
2022-09-03T02:35:35.152Z,99096.22
2022-09-03T02:38:50.188Z,99089.77
2022-09-03T02:42:03.972Z,99091.16
2022-09-03T02:45:26.447Z,99093.11
2022-09-03T02:48:38.410Z,99091.45
2022-09-03T02:51:50.987Z,99098.99
2022-09-03T02:55:02.689Z,99096.48
2022-09-03T02:58:14.465Z,99100.11
2022-09-03T03:01:26.293Z,99106.27
2022-09-03T03:04:39.548Z,99111.03
2022-09-03T03:07:51.091Z,99109.77
2022-09-03T03:11:04.434Z,99105.13
2022-09-03T03:14:16.387Z,99118.41
2022-09-03T03:17:28.831Z,99112.69
2022-09-03T03:20:40.438Z,99111.13
2022-09-03T03:23:53.172Z,99113.23
2022-09-03T03:27:07.054Z,99118.13
2022-09-03T03:30:21.004Z,99113.78
2022-09-03T03:33:33.037Z,99112.20
2022-09-03T03:36:44.779Z,99106.48
2022-09-03T03:39:56.492Z,99101.73
2022-09-03T03:43:08.303Z,99113.91
2022-09-03T03:46:21.107Z,99112.91
2022-09-03T03:49:33.257Z,99107.30
2022-09-03T03:52:45.559Z,99107.58
2022-09-03T03:56:05.209Z,99104.78
2022-09-03T03:59:17.113Z,99109.30
2022-09-03T04:05:33.664Z,99113.92
2022-09-03T04:08:48.140Z,99128.60
2022-09-03T04:12:02.449Z,99119.92
2022-09-03T04:15:15.831Z,99116.28
2022-09-03T04:18:27.325Z,99116.72
2022-09-03T04:21:39.185Z,99122.31
2022-09-03T04:24:50.773Z,99113.39
2022-09-03T04:28:04.699Z,99108.77
2022-09-03T04:31:21.865Z,99100.95
2022-09-03T04:34:39.102Z,99109.89
2022-09-03T04:38:02.635Z,99109.63
2022-09-03T04:45:10.868Z,99113.40
2022-09-03T04:48:43.296Z,99112.84
2022-09-03T04:52:04.706Z,99123.22
2022-09-03T04:55:25.479Z,99124.48
2022-09-03T04:58:46.215Z,99126.73
2022-09-03T05:02:00.757Z,99131.75
2022-09-03T05:05:13.832Z,99123.21
2022-09-03T05:08:26.696Z,99131.33
2022-09-03T05:14:50.286Z,99134.16
2022-09-03T05:18:11.562Z,99129.67
2022-09-03T05:21:27.183Z,99138.48
2022-09-03T05:24:40.371Z,99150.53
2022-09-03T05:28:00.988Z,99148.86
2022-09-03T05:31:19.611Z,99151.66
2022-09-03T05:34:36.255Z,99153.06
2022-09-03T05:37:53.512Z,99142.94
2022-09-03T05:41:09.542Z,99143.91
2022-09-03T05:44:23.302Z,99152.75
2022-09-03T05:47:37.527Z,99152.17
2022-09-03T05:50:52.830Z,99138.98
2022-09-03T05:54:05.923Z,99137.27
2022-09-03T05:57:17.631Z,99127.03
2022-09-03T06:00:29.620Z,99124.38
2022-09-03T06:03:41.454Z,99114.91
2022-09-03T06:06:54.379Z,99103.39
2022-09-03T06:24:29.675Z,99115.45
2022-09-03T06:27:41.567Z,99128.41
2022-09-03T06:30:53.217Z,99124.63
2022-09-03T06:34:06.084Z,99132.38
2022-09-03T06:37:17.666Z,99127.00
2022-09-03T06:40:29.283Z,99133.45
2022-09-03T06:43:43.221Z,99128.96
2022-09-03T06:46:54.958Z,99134.81
2022-09-03T06:50:07.184Z,99127.34
2022-09-03T06:56:24.520Z,99121.85
2022-09-03T06:59:36.471Z,99128.38
2022-09-03T07:02:59.139Z,99116.66
2022-09-03T07:09:18.938Z,99120.34
2022-09-03T07:12:30.705Z,99129.55
2022-09-03T07:19:41.250Z,99135.36
2022-09-03T07:26:19.905Z,99140.69
2022-09-03T07:32:43.071Z,99141.20
2022-09-03T07:35:55.041Z,99135.87
2022-09-03T07:39:18.140Z,99123.94
2022-09-03T07:42:40.984Z,99124.93
2022-09-03T08:00:03.678Z,99138.41
2022-09-03T08:06:59.999Z,99152.78
2022-09-03T08:10:13.590Z,99149.44
2022-09-03T08:17:08.048Z,99155.11
2022-09-03T08:20:29.727Z,99115.77
2022-09-03T08:42:05.136Z,99144.63
2022-09-03T08:45:22.645Z,99136.94
2022-09-03T08:48:37.515Z,99130.63
2022-09-03T08:51:52.122Z,99134.67
2022-09-03T08:55:15.529Z,99139.23
2022-09-03T09:08:40.477Z,99142.65
2022-09-03T09:12:23.053Z,99134.30
2022-09-03T09:52:09.007Z,99166.97
2022-09-03T09:55:32.894Z,99160.70
2022-09-03T09:58:56.252Z,99163.75
2022-09-03T10:05:43.488Z,99168.88
2022-09-03T10:12:44.920Z,99153.66
2022-09-03T10:23:41.332Z,99133.20
2022-09-03T10:27:04.023Z,99138.78
2022-09-03T10:30:37.216Z,99132.69
2022-09-03T10:37:13.656Z,99136.04
2022-09-03T10:40:34.943Z,99145.86
2022-09-03T10:44:41.799Z,99156.67
2022-09-03T10:58:58.683Z,99160.81
2022-09-03T11:02:47.265Z,99151.53
2022-09-03T11:09:17.782Z,99141.75
2022-09-03T11:12:47.058Z,99145.63
2022-09-03T11:16:05.098Z,99152.80
2022-09-03T11:22:23.398Z,99142.59
2022-09-03T11:26:11.989Z,99145.12
2022-09-03T11:29:46.104Z,99141.89
2022-09-03T11:41:18.463Z,99118.09
2022-09-03T11:44:44.321Z,99108.27
2022-09-03T11:52:15.781Z,99107.67
2022-09-03T11:55:43.772Z,99100.70
2022-09-03T12:09:01.866Z,99109.95
2022-09-03T12:12:28.056Z,99097.60
2022-09-03T12:15:57.689Z,99093.09
2022-09-03T12:19:14.565Z,99095.31
2022-09-03T12:22:28.916Z,99108.61
2022-09-03T12:25:40.752Z,99109.52
2022-09-03T12:28:55.633Z,99104.26
2022-09-03T12:32:18.639Z,99107.38
2022-09-03T12:39:10.463Z,99100.70
2022-09-03T12:42:09.173Z,99091.98
2022-09-03T12:45:25.426Z,99082.38
2022-09-03T12:48:40.454Z,99088.09
2022-09-03T12:51:55.758Z,99087.31
2022-09-03T12:55:12.841Z,99074.41
2022-09-03T12:58:30.863Z,99074.35
2022-09-03T13:01:49.351Z,99063.97
2022-09-03T13:05:01.877Z,99063.77
2022-09-03T13:08:18.584Z,99060.80
2022-09-03T13:11:31.619Z,99067.85
2022-09-03T13:14:53.272Z,99072.64
2022-09-03T13:18:22.908Z,99073.02
2022-09-03T13:21:46.124Z,99071.08
2022-09-03T13:25:23.794Z,99065.94
2022-09-03T13:28:47.413Z,99056.80
2022-09-03T13:32:06.221Z,99065.63
2022-09-03T13:35:22.353Z,99072.03
2022-09-03T13:38:39.983Z,99065.05
2022-09-03T13:41:57.186Z,99064.52
2022-09-03T13:45:16.387Z,99072.03
2022-09-03T13:48:47.386Z,99066.11
2022-09-03T13:52:04.719Z,99069.30
2022-09-03T13:55:23.418Z,99069.68
2022-09-03T13:58:40.385Z,99066.25
2022-09-03T14:02:18.699Z,99064.47
2022-09-03T14:05:56.086Z,99064.36
2022-09-03T14:09:19.177Z,99071.41
2022-09-03T14:12:41.304Z,99075.88
2022-09-03T14:15:59.613Z,99073.66
2022-09-03T14:19:15.853Z,99077.20
2022-09-03T14:22:28.749Z,99077.51
2022-09-03T14:25:42.801Z,99073.69
2022-09-03T14:29:03.787Z,99068.78
2022-09-03T14:32:42.446Z,99068.67
2022-09-03T14:36:13.247Z,99059.75
2022-09-03T14:39:39.205Z,99061.60
2022-09-03T14:43:06.778Z,99058.47
2022-09-03T14:46:42.458Z,99071.08
2022-09-03T14:50:10.138Z,99067.22
2022-09-03T14:53:38.920Z,99064.16
2022-09-03T14:57:02.362Z,99067.61
2022-09-03T15:00:30.676Z,99062.58
2022-09-03T15:04:42.049Z,99062.98
2022-09-03T15:07:58.774Z,99066.63
2022-09-03T15:11:17.814Z,99072.10
2022-09-03T15:14:38.134Z,99058.09
2022-09-03T15:18:04.985Z,99062.53
2022-09-03T15:21:24.443Z,99063.73
2022-09-03T15:24:45.527Z,99060.59
2022-09-03T15:28:09.387Z,99060.40
2022-09-03T15:31:26.233Z,99055.02
2022-09-03T15:35:07.652Z,99058.55
2022-09-03T15:38:25.184Z,99034.83
2022-09-03T15:41:50.990Z,99052.72
2022-09-03T15:45:10.067Z,99054.77
2022-09-03T15:48:35.143Z,99054.41
2022-09-03T15:51:54.986Z,99049.89
2022-09-03T15:55:13.940Z,99059.94
2022-09-03T15:58:33.274Z,99059.94
2022-09-03T16:01:51.350Z,99060.94
2022-09-03T16:05:16.335Z,99048.53
2022-09-03T16:08:34.060Z,99058.25
2022-09-03T16:11:52.903Z,99049.92
2022-09-03T16:15:08.698Z,99051.30
2022-09-03T16:18:27.503Z,99052.69
2022-09-03T16:21:46.811Z,99056.58
2022-09-03T16:25:05.485Z,99052.23
2022-09-03T16:28:21.685Z,99052.78
2022-09-03T16:31:50.771Z,99048.05
2022-09-03T16:35:19.187Z,99052.67
2022-09-03T16:38:45.771Z,99050.55
2022-09-03T16:42:04.699Z,99056.09
2022-09-03T16:45:31.662Z,99056.09
2022-09-03T16:48:50.659Z,99043.22
2022-09-03T16:52:09.707Z,99043.95
2022-09-03T16:55:27.648Z,99047.45
2022-09-03T16:58:46.341Z,99054.20
2022-09-03T17:02:37.032Z,99056.62
2022-09-03T17:05:50.290Z,99055.84
2022-09-03T17:09:12.371Z,99066.59
2022-09-03T17:12:30.509Z,99059.91
2022-09-03T17:15:47.261Z,99059.25
2022-09-03T17:19:06.103Z,99065.19
2022-09-03T17:22:29.584Z,99072.75
2022-09-03T17:25:45.132Z,99067.28
2022-09-03T17:29:15.448Z,99070.47
2022-09-03T17:32:40.297Z,99064.44
2022-09-03T17:35:57.562Z,99067.13
2022-09-03T17:39:45.795Z,99069.87
2022-09-03T17:43:00.638Z,99071.23
2022-09-03T17:46:25.186Z,99073.97
2022-09-03T17:49:48.001Z,99082.39
2022-09-03T17:53:03.088Z,99087.77
2022-09-03T17:56:25.557Z,99092.47
2022-09-03T17:59:46.143Z,99097.52
2022-09-03T18:03:05.065Z,99097.89
2022-09-03T18:06:25.426Z,99096.56
2022-09-03T18:09:44.399Z,99102.27
2022-09-03T18:13:03.996Z,99098.63
2022-09-03T18:16:20.350Z,99097.64
2022-09-03T18:19:55.802Z,99083.93
2022-09-03T18:23:28.529Z,99093.52
2022-09-03T18:27:02.110Z,99091.53
2022-09-03T18:30:34.681Z,99102.45
2022-09-03T18:34:01.678Z,99108.50
2022-09-03T18:37:28.400Z,99115.24
2022-09-03T18:41:00.865Z,99106.16
2022-09-03T18:44:31.993Z,99116.91
2022-09-03T18:48:15.323Z,99121.30
2022-09-03T18:51:45.964Z,99131.01
2022-09-03T18:55:23.240Z,99131.02
2022-09-03T18:58:55.464Z,99128.52
2022-09-03T19:02:27.174Z,99125.53
2022-09-03T19:05:59.847Z,99121.83
2022-09-03T19:09:33.589Z,99124.02
2022-09-03T19:13:20.191Z,99119.01
2022-09-03T19:16:56.240Z,99119.99
2022-09-03T19:20:30.637Z,99119.98
2022-09-03T19:23:56.849Z,99116.81
2022-09-03T19:27:52.980Z,99117.97
2022-09-03T19:31:04.308Z,99127.52
2022-09-03T19:34:46.529Z,99132.71
2022-09-03T19:38:22.901Z,99130.48
2022-09-03T19:41:55.362Z,99141.50
2022-09-03T19:45:29.762Z,99135.66
2022-09-03T19:49:05.567Z,99134.65
2022-09-03T19:52:38.815Z,99143.66
2022-09-03T19:56:08.779Z,99150.51
2022-09-03T19:59:40.262Z,99145.98
2022-09-03T20:03:09.463Z,99156.31
2022-09-03T20:06:37.676Z,99155.09
2022-09-03T20:10:05.123Z,99155.09
2022-09-03T20:13:17.232Z,99160.92
2022-09-03T20:16:33.714Z,99165.58
2022-09-03T20:19:57.494Z,99172.42
2022-09-03T20:23:15.348Z,99155.48
2022-09-03T20:26:36.932Z,99171.19
2022-09-03T20:30:06.519Z,99166.80
2022-09-03T20:33:54.848Z,99172.78
2022-09-03T20:37:11.480Z,99178.27
2022-09-03T20:40:33.427Z,99176.09
2022-09-03T20:44:16.951Z,99178.24
2022-09-03T20:48:01.272Z,99170.69
2022-09-03T20:51:20.244Z,99178.32
2022-09-03T20:54:36.104Z,99179.76
2022-09-03T20:57:55.757Z,99173.05
2022-09-03T21:01:13.706Z,99176.73
2022-09-03T21:04:42.399Z,99172.47
2022-09-03T21:08:04.563Z,99178.14
2022-09-03T21:11:28.670Z,99184.39
2022-09-03T21:14:45.164Z,99188.29
2022-09-03T21:18:07.722Z,99187.53
2022-09-03T21:21:26.121Z,99190.97
2022-09-03T21:24:43.866Z,99189.36
2022-09-03T21:28:00.781Z,99191.05
2022-09-03T21:31:21.575Z,99196.63
2022-09-03T21:34:40.925Z,99199.05
2022-09-03T21:38:01.883Z,99200.24
2022-09-03T21:41:23.349Z,99202.75
2022-09-03T21:44:51.435Z,99209.97
2022-09-03T21:48:09.745Z,99198.13
2022-09-03T21:51:26.298Z,99198.44
2022-09-03T21:54:39.726Z,99205.13
2022-09-03T21:57:59.932Z,99211.75
2022-09-03T22:01:16.469Z,99210.91
2022-09-03T22:04:29.189Z,99209.45
2022-09-03T22:07:59.782Z,99212.01
2022-09-03T22:11:17.098Z,99210.89
2022-09-03T22:14:28.083Z,99211.59
2022-09-03T22:17:46.234Z,99206.95
2022-09-03T22:21:08.169Z,99205.83
2022-09-03T22:24:26.478Z,99206.95
2022-09-03T22:27:46.278Z,99204.13
2022-09-03T22:31:03.479Z,99201.93
2022-09-03T22:34:33.959Z,99205.41
2022-09-03T22:38:01.682Z,99208.92
2022-09-03T22:41:31.144Z,99217.22
2022-09-03T22:44:59.177Z,99214.44
2022-09-03T22:48:19.120Z,99209.80
2022-09-03T22:51:32.072Z,99201.94
2022-09-03T22:54:59.158Z,99206.33
2022-09-03T22:58:16.448Z,99204.94
2022-09-03T23:01:34.965Z,99195.83
2022-09-03T23:04:52.726Z,99209.02
2022-09-03T23:08:10.002Z,99202.55
2022-09-03T23:11:29.449Z,99201.84
2022-09-03T23:14:48.823Z,99202.84
2022-09-03T23:18:09.079Z,99207.60
2022-09-03T23:21:30.769Z,99207.60
2022-09-03T23:24:46.604Z,99207.88
2022-09-03T23:28:03.042Z,99211.53
2022-09-03T23:31:23.542Z,99209.99
2022-09-03T23:34:35.685Z,99205.09
2022-09-03T23:38:00.920Z,99215.19
2022-09-03T23:41:17.841Z,99207.90
2022-09-03T23:44:37.702Z,99212.83
2022-09-03T23:47:54.450Z,99212.13
2022-09-03T23:51:13.976Z,99207.63
2022-09-03T23:54:33.972Z,99208.92
2022-09-03T23:57:50.207Z,99212.16
